« Back
NWS Peachtree City, Ga » Text Product » ATL Terminal Aerodrome Forecast


Printer-friendly Version
Current Version              Previous Versions:   1  2  3  4  5  6  7  8  9  

Terminal Aerodrome Forecast

891
FTUS42 KFFC 230100 AAA
TAFATL
TAF AMD
KATL 230130Z 2302/2406 33008KT P6SM SKC
     FM231600 32005KT P6SM FEW250=



USA.gov is the U.S. government's official web portal to all federal, state and local government web resources and services.